sensor_id;sensor_type;location;lat;lon;timestamp;pressure;altitude;pressure_sealevel;temperature;humidity
69198;BME280;56311;50.298;8.514;2023-07-16T00:00:00;97400.0;;;19.2;100.0
69198;BME280;56311;50.298;8.514;2023-07-16T00:02:00;97400.0;;;19.3;100.0
69198;BME280;56311;50.298;8.514;2023-07-16T00:04:00;97370.0;;;19.2;100.0
69198;BME280;56311;50.298;8.514;2023-07-16T00:06:00;97380.0;;;19.2;100.0
69198;BME280;56311;50.298;8.514;2023-07-16T00:08:00;97370.0;;;19.1;100.0
69198;BME280;56311;50.298;8.514;2023-07-16T00:10:00;97370.0;;;19.0;100.0
69198;BME280;56311;50.298;8.514;2023-07-16T00:12:01;97330.0;;;19.0;100.0
69198;BME280;56311;50.298;8.514;2023-07-16T00:14:00;97370.0;;;19.0;100.0
69198;BME280;56311;50.298;8.514;2023-07-16T00:16:00;97380.0;;;18.9;100.0
69198;BME280;56311;50.298;8.514;2023-07-16T00:18:00;97370.0;;;18.8;100.0
69198;BME280;56311;50.298;8.514;2023-07-16T00:20:00;97340.0;;;18.7;100.0
69198;BME280;56311;50.298;8.514;2023-07-16T00:22:00;97310.0;;;18.8;100.0
69198;BME280;56311;50.298;8.514;2023-07-16T00:24:01;97350.0;;;18.8;100.0
69198;BME280;56311;50.298;8.514;2023-07-16T00:26:00;97390.0;;;18.8;100.0
69198;BME280;56311;50.298;8.514;2023-07-16T00:28:00;97380.0;;;18.7;100.0
69198;BME280;56311;50.298;8.514;2023-07-16T00:30:00;97390.0;;;18.7;100.0
69198;BME280;56311;50.298;8.514;2023-07-16T00:32:00;97390.0;;;18.6;100.0
69198;BME280;56311;50.298;8.514;2023-07-16T00:34:00;97400.0;;;18.7;100.0
69198;BME280;56311;50.298;8.514;2023-07-16T00:36:01;97380.0;;;18.7;100.0
69198;BME280;56311;50.298;8.514;2023-07-16T00:38:00;97360.0;;;18.7;100.0
69198;BME280;56311;50.298;8.514;2023-07-16T00:40:00;97370.0;;;18.6;100.0
69198;BME280;56311;50.298;8.514;2023-07-16T00:42:00;97350.0;;;18.7;100.0
69198;BME280;56311;50.298;8.514;2023-07-16T00:44:00;97380.0;;;18.6;100.0
69198;BME280;56311;50.298;8.514;2023-07-16T00:46:00;97370.0;;;18.5;100.0
69198;BME280;56311;50.298;8.514;2023-07-16T00:48:00;97380.0;;;18.5;100.0
69198;BME280;56311;50.298;8.514;2023-07-16T00:50:00;97390.0;;;18.5;100.0
69198;BME280;56311;50.298;8.514;2023-07-16T00:52:00;97390.0;;;18.5;100.0
69198;BME280;56311;50.298;8.514;2023-07-16T00:54:01;97390.0;;;18.4;100.0
69198;BME280;56311;50.298;8.514;2023-07-16T00:56:00;97390.0;;;18.3;100.0
69198;BME280;56311;50.298;8.514;2023-07-16T00:58:02;97400.0;;;18.4;100.0
69198;BME280;56311;50.298;8.514;2023-07-16T01:00:00;97410.0;;;18.3;100.0
69198;BME280;56311;50.298;8.514;2023-07-16T01:02:00;97400.0;;;18.3;100.0
69198;BME280;56311;50.298;8.514;2023-07-16T01:04:00;97390.0;;;18.4;100.0
69198;BME280;56311;50.298;8.514;2023-07-16T01:06:03;97380.0;;;18.4;100.0
69198;BME280;56311;50.298;8.514;2023-07-16T01:08:04;97360.0;;;18.3;100.0
69198;BME280;56311;50.298;8.514;2023-07-16T01:10:00;97350.0;;;18.3;100.0
69198;BME280;56311;50.298;8.514;2023-07-16T01:12:00;97370.0;;;18.3;100.0
69198;BME280;56311;50.298;8.514;2023-07-16T01:14:01;97370.0;;;18.2;100.0
69198;BME280;56311;50.298;8.514;2023-07-16T01:16:02;97370.0;;;18.2;100.0
69198;BME280;56311;50.298;8.514;2023-07-16T01:18:00;97370.0;;;18.2;100.0
69198;BME280;56311;50.298;8.514;2023-07-16T01:20:00;97360.0;;;18.1;100.0
69198;BME280;56311;50.298;8.514;2023-07-16T01:22:12;97350.0;;;18.1;100.0
69198;BME280;56311;50.298;8.514;2023-07-16T01:24:14;97350.0;;;18.1;100.0
69198;BME280;56311;50.298;8.514;2023-07-16T01:26:06;97360.0;;;18.0;100.0
69198;BME280;56311;50.298;8.514;2023-07-16T01:28:16;97360.0;;;18.0;100.0
69198;BME280;56311;50.298;8.514;2023-07-16T01:30:02;97380.0;;;18.0;100.0
69198;BME280;56311;50.298;8.514;2023-07-16T01:32:03;97360.0;;;18.0;100.0
69198;BME280;56311;50.298;8.514;2023-07-16T01:34:01;97370.0;;;17.8;100.0
69198;BME280;56311;50.298;8.514;2023-07-16T01:36:02;97380.0;;;17.8;100.0
69198;BME280;56311;50.298;8.514;2023-07-16T01:38:00;97380.0;;;17.8;100.0
69198;BME280;56311;50.298;8.514;2023-07-16T01:40:00;97380.0;;;17.8;100.0
69198;BME280;56311;50.298;8.514;2023-07-16T01:42:01;97390.0;;;17.8;100.0
69198;BME280;56311;50.298;8.514;2023-07-16T01:44:00;97400.0;;;17.7;100.0
69198;BME280;56311;50.298;8.514;2023-07-16T01:46:00;97400.0;;;17.7;100.0
69198;BME280;56311;50.298;8.514;2023-07-16T01:48:07;97390.0;;;17.6;100.0
69198;BME280;56311;50.298;8.514;2023-07-16T01:50:00;97400.0;;;17.7;100.0
69198;BME280;56311;50.298;8.514;2023-07-16T01:52:01;97410.0;;;17.7;100.0
69198;BME280;56311;50.298;8.514;2023-07-16T01:54:00;97420.0;;;17.6;100.0
69198;BME280;56311;50.298;8.514;2023-07-16T01:56:01;97420.0;;;17.6;100.0
69198;BME280;56311;50.298;8.514;2023-07-16T01:58:00;97430.0;;;17.6;100.0
69198;BME280;56311;50.298;8.514;2023-07-16T02:00:00;97440.0;;;17.6;100.0
69198;BME280;56311;50.298;8.514;2023-07-16T02:02:00;97450.0;;;17.5;100.0
69198;BME280;56311;50.298;8.514;2023-07-16T02:04:00;97450.0;;;17.4;100.0
69198;BME280;56311;50.298;8.514;2023-07-16T02:06:00;97460.0;;;17.4;100.0
69198;BME280;56311;50.298;8.514;2023-07-16T02:08:00;97450.0;;;17.4;100.0
69198;BME280;56311;50.298;8.514;2023-07-16T02:10:00;97450.0;;;17.3;100.0
69198;BME280;56311;50.298;8.514;2023-07-16T02:12:00;97450.0;;;17.3;100.0
69198;BME280;56311;50.298;8.514;2023-07-16T02:14:00;97450.0;;;17.4;100.0
69198;BME280;56311;50.298;8.514;2023-07-16T02:16:00;97460.0;;;17.3;100.0
69198;BME280;56311;50.298;8.514;2023-07-16T02:18:00;97450.0;;;17.3;100.0
69198;BME280;56311;50.298;8.514;2023-07-16T02:20:00;97460.0;;;17.4;100.0
69198;BME280;56311;50.298;8.514;2023-07-16T02:22:00;97460.0;;;17.2;100.0
69198;BME280;56311;50.298;8.514;2023-07-16T02:24:00;97460.0;;;17.1;100.0
69198;BME280;56311;50.298;8.514;2023-07-16T02:26:00;97470.0;;;17.2;100.0
69198;BME280;56311;50.298;8.514;2023-07-16T02:28:00;97470.0;;;17.2;100.0
69198;BME280;56311;50.298;8.514;2023-07-16T02:30:00;97470.0;;;17.0;100.0
69198;BME280;56311;50.298;8.514;2023-07-16T02:32:00;97470.0;;;17.1;100.0
69198;BME280;56311;50.298;8.514;2023-07-16T02:34:00;97480.0;;;17.1;100.0
69198;BME280;56311;50.298;8.514;2023-07-16T02:36:00;97480.0;;;17.0;100.0
69198;BME280;56311;50.298;8.514;2023-07-16T02:38:01;97480.0;;;17.0;100.0
69198;BME280;56311;50.298;8.514;2023-07-16T02:40:00;97480.0;;;17.0;100.0
69198;BME280;56311;50.298;8.514;2023-07-16T02:42:00;97480.0;;;17.0;100.0
69198;BME280;56311;50.298;8.514;2023-07-16T02:44:01;97480.0;;;16.9;100.0
69198;BME280;56311;50.298;8.514;2023-07-16T02:46:00;97490.0;;;17.0;100.0
69198;BME280;56311;50.298;8.514;2023-07-16T02:48:00;97490.0;;;16.9;100.0
69198;BME280;56311;50.298;8.514;2023-07-16T02:50:00;97490.0;;;16.9;100.0
69198;BME280;56311;50.298;8.514;2023-07-16T02:52:00;97490.0;;;16.8;100.0
69198;BME280;56311;50.298;8.514;2023-07-16T02:54:00;97500.0;;;16.7;100.0
69198;BME280;56311;50.298;8.514;2023-07-16T02:56:00;97500.0;;;16.9;100.0
69198;BME280;56311;50.298;8.514;2023-07-16T02:58:00;97500.0;;;16.8;100.0
69198;BME280;56311;50.298;8.514;2023-07-16T03:00:00;97510.0;;;16.9;100.0
69198;BME280;56311;50.298;8.514;2023-07-16T03:02:00;97510.0;;;16.8;100.0
69198;BME280;56311;50.298;8.514;2023-07-16T03:04:00;97510.0;;;16.7;100.0
69198;BME280;56311;50.298;8.514;2023-07-16T03:06:00;97510.0;;;16.7;100.0
69198;BME280;56311;50.298;8.514;2023-07-16T03:08:00;97510.0;;;16.6;100.0
69198;BME280;56311;50.298;8.514;2023-07-16T03:10:00;97510.0;;;16.6;100.0
69198;BME280;56311;50.298;8.514;2023-07-16T03:12:00;97510.0;;;16.8;100.0
69198;BME280;56311;50.298;8.514;2023-07-16T03:14:00;97520.0;;;16.8;100.0
69198;BME280;56311;50.298;8.514;2023-07-16T03:16:00;97510.0;;;16.8;100.0
69198;BME280;56311;50.298;8.514;2023-07-16T03:18:00;97520.0;;;16.8;100.0
69198;BME280;56311;50.298;8.514;2023-07-16T03:20:00;97520.0;;;16.8;100.0
69198;BME280;56311;50.298;8.514;2023-07-16T03:22:00;97520.0;;;16.8;100.0
69198;BME280;56311;50.298;8.514;2023-07-16T03:24:00;97520.0;;;16.8;100.0
69198;BME280;56311;50.298;8.514;2023-07-16T03:26:01;97520.0;;;16.7;100.0
69198;BME280;56311;50.298;8.514;2023-07-16T03:28:00;97530.0;;;16.6;100.0
69198;BME280;56311;50.298;8.514;2023-07-16T03:30:00;97530.0;;;16.6;100.0
69198;BME280;56311;50.298;8.514;2023-07-16T03:32:00;97530.0;;;16.5;100.0
69198;BME280;56311;50.298;8.514;2023-07-16T03:34:00;97520.0;;;16.5;100.0
69198;BME280;56311;50.298;8.514;2023-07-16T03:36:00;97530.0;;;16.5;100.0
69198;BME280;56311;50.298;8.514;2023-07-16T03:38:00;97530.0;;;16.5;100.0
69198;BME280;56311;50.298;8.514;2023-07-16T03:40:12;97530.0;;;16.5;100.0
69198;BME280;56311;50.298;8.514;2023-07-16T03:42:00;97540.0;;;16.6;100.0
69198;BME280;56311;50.298;8.514;2023-07-16T03:44:00;97540.0;;;16.5;100.0
69198;BME280;56311;50.298;8.514;2023-07-16T03:46:00;97550.0;;;16.6;100.0
69198;BME280;56311;50.298;8.514;2023-07-16T03:48:00;97540.0;;;16.4;100.0
69198;BME280;56311;50.298;8.514;2023-07-16T03:50:00;97550.0;;;16.4;100.0
69198;BME280;56311;50.298;8.514;2023-07-16T03:52:00;97540.0;;;16.4;100.0
69198;BME280;56311;50.298;8.514;2023-07-16T03:54:00;97550.0;;;16.3;100.0
69198;BME280;56311;50.298;8.514;2023-07-16T03:56:00;97560.0;;;16.3;100.0
69198;BME280;56311;50.298;8.514;2023-07-16T03:58:00;97560.0;;;16.2;100.0
69198;BME280;56311;50.298;8.514;2023-07-16T04:00:00;97560.0;;;16.1;100.0
69198;BME280;56311;50.298;8.514;2023-07-16T04:02:00;97560.0;;;16.3;100.0
69198;BME280;56311;50.298;8.514;2023-07-16T04:04:00;97560.0;;;16.3;100.0
69198;BME280;56311;50.298;8.514;2023-07-16T04:06:02;97560.0;;;16.4;100.0
69198;BME280;56311;50.298;8.514;2023-07-16T04:08:00;97560.0;;;16.4;100.0
69198;BME280;56311;50.298;8.514;2023-07-16T04:10:01;97570.0;;;16.3;100.0
69198;BME280;56311;50.298;8.514;2023-07-16T04:12:00;97570.0;;;16.4;100.0
69198;BME280;56311;50.298;8.514;2023-07-16T04:14:00;97570.0;;;16.5;100.0
69198;BME280;56311;50.298;8.514;2023-07-16T04:16:00;97580.0;;;16.4;100.0
69198;BME280;56311;50.298;8.514;2023-07-16T04:18:00;97570.0;;;16.2;100.0
69198;BME280;56311;50.298;8.514;2023-07-16T04:20:00;97570.0;;;16.2;100.0
69198;BME280;56311;50.298;8.514;2023-07-16T04:22:00;97570.0;;;16.2;100.0
69198;BME280;56311;50.298;8.514;2023-07-16T04:24:01;97580.0;;;16.2;100.0
69198;BME280;56311;50.298;8.514;2023-07-16T04:26:00;97580.0;;;16.3;100.0
69198;BME280;56311;50.298;8.514;2023-07-16T04:28:00;97580.0;;;16.3;100.0
69198;BME280;56311;50.298;8.514;2023-07-16T04:30:00;97580.0;;;16.5;100.0
69198;BME280;56311;50.298;8.514;2023-07-16T04:32:02;97590.0;;;16.5;100.0
69198;BME280;56311;50.298;8.514;2023-07-16T04:34:00;97590.0;;;16.5;100.0
69198;BME280;56311;50.298;8.514;2023-07-16T04:36:00;97590.0;;;16.4;100.0
69198;BME280;56311;50.298;8.514;2023-07-16T04:38:00;97600.0;;;16.5;100.0
69198;BME280;56311;50.298;8.514;2023-07-16T04:40:00;97590.0;;;16.5;100.0
69198;BME280;56311;50.298;8.514;2023-07-16T04:42:02;97600.0;;;16.5;100.0
69198;BME280;56311;50.298;8.514;2023-07-16T04:44:00;97600.0;;;16.4;100.0
69198;BME280;56311;50.298;8.514;2023-07-16T04:46:00;97600.0;;;16.4;100.0
69198;BME280;56311;50.298;8.514;2023-07-16T04:48:00;97600.0;;;16.5;100.0
69198;BME280;56311;50.298;8.514;2023-07-16T04:50:00;97610.0;;;16.5;100.0
69198;BME280;56311;50.298;8.514;2023-07-16T04:52:00;97600.0;;;16.4;100.0
69198;BME280;56311;50.298;8.514;2023-07-16T04:54:00;97610.0;;;16.5;100.0
69198;BME280;56311;50.298;8.514;2023-07-16T04:56:00;97610.0;;;16.5;100.0
69198;BME280;56311;50.298;8.514;2023-07-16T04:58:00;97610.0;;;16.6;100.0
69198;BME280;56311;50.298;8.514;2023-07-16T05:00:00;97610.0;;;16.6;100.0
69198;BME280;56311;50.298;8.514;2023-07-16T05:02:01;97620.0;;;16.6;100.0
69198;BME280;56311;50.298;8.514;2023-07-16T05:04:00;97620.0;;;16.6;100.0
69198;BME280;56311;50.298;8.514;2023-07-16T05:06:01;97620.0;;;16.6;100.0
69198;BME280;56311;50.298;8.514;2023-07-16T05:08:00;97630.0;;;16.7;100.0
69198;BME280;56311;50.298;8.514;2023-07-16T05:10:00;97630.0;;;16.7;100.0
69198;BME280;56311;50.298;8.514;2023-07-16T05:12:00;97630.0;;;16.6;100.0
69198;BME280;56311;50.298;8.514;2023-07-16T05:14:00;97640.0;;;16.7;100.0
69198;BME280;56311;50.298;8.514;2023-07-16T05:16:00;97630.0;;;16.6;100.0
69198;BME280;56311;50.298;8.514;2023-07-16T05:18:00;97640.0;;;16.8;100.0
69198;BME280;56311;50.298;8.514;2023-07-16T05:20:00;97640.0;;;16.8;100.0
69198;BME280;56311;50.298;8.514;2023-07-16T05:22:00;97640.0;;;16.9;100.0
69198;BME280;56311;50.298;8.514;2023-07-16T05:24:00;97650.0;;;17.0;100.0
69198;BME280;56311;50.298;8.514;2023-07-16T05:26:00;97650.0;;;17.0;100.0
69198;BME280;56311;50.298;8.514;2023-07-16T05:28:00;97650.0;;;17.2;100.0
69198;BME280;56311;50.298;8.514;2023-07-16T05:30:01;97650.0;;;17.2;100.0
69198;BME280;56311;50.298;8.514;2023-07-16T05:32:00;97640.0;;;17.2;100.0
69198;BME280;56311;50.298;8.514;2023-07-16T05:34:00;97650.0;;;17.3;100.0
69198;BME280;56311;50.298;8.514;2023-07-16T05:36:00;97660.0;;;17.3;100.0
69198;BME280;56311;50.298;8.514;2023-07-16T05:38:00;97660.0;;;17.5;100.0
69198;BME280;56311;50.298;8.514;2023-07-16T05:40:00;97670.0;;;17.6;99.3
69198;BME280;56311;50.298;8.514;2023-07-16T05:42:01;97670.0;;;17.6;99.0
69198;BME280;56311;50.298;8.514;2023-07-16T05:44:00;97670.0;;;17.5;98.7
69198;BME280;56311;50.298;8.514;2023-07-16T05:46:00;97680.0;;;17.6;96.5
69198;BME280;56311;50.298;8.514;2023-07-16T05:48:00;97680.0;;;17.6;98.2
69198;BME280;56311;50.298;8.514;2023-07-16T05:50:00;97680.0;;;17.7;96.4
69198;BME280;56311;50.298;8.514;2023-07-16T05:52:00;97690.0;;;17.6;96.1
69198;BME280;56311;50.298;8.514;2023-07-16T05:54:00;97680.0;;;17.6;95.3
69198;BME280;56311;50.298;8.514;2023-07-16T05:56:00;97680.0;;;17.7;94.8
69198;BME280;56311;50.298;8.514;2023-07-16T05:58:00;97680.0;;;17.7;94.8
69198;BME280;56311;50.298;8.514;2023-07-16T06:00:00;97680.0;;;17.9;94.5
69198;BME280;56311;50.298;8.514;2023-07-16T06:02:00;97690.0;;;17.8;93.4
69198;BME280;56311;50.298;8.514;2023-07-16T06:04:00;97690.0;;;17.9;94.3
69198;BME280;56311;50.298;8.514;2023-07-16T06:06:00;97690.0;;;17.9;95.2
69198;BME280;56311;50.298;8.514;2023-07-16T06:08:00;97700.0;;;18.0;93.4
69198;BME280;56311;50.298;8.514;2023-07-16T06:10:00;97690.0;;;18.2;92.3
69198;BME280;56311;50.298;8.514;2023-07-16T06:12:00;97700.0;;;18.2;91.7
69198;BME280;56311;50.298;8.514;2023-07-16T06:14:00;97700.0;;;18.3;90.8
69198;BME280;56311;50.298;8.514;2023-07-16T06:16:00;97700.0;;;18.1;90.2
69198;BME280;56311;50.298;8.514;2023-07-16T06:18:00;97700.0;;;18.2;90.7
69198;BME280;56311;50.298;8.514;2023-07-16T06:20:02;97700.0;;;18.4;91.2
69198;BME280;56311;50.298;8.514;2023-07-16T06:22:00;97700.0;;;18.5;89.0
69198;BME280;56311;50.298;8.514;2023-07-16T06:24:00;97700.0;;;18.5;88.1
69198;BME280;56311;50.298;8.514;2023-07-16T06:26:00;97700.0;;;18.5;87.6
69198;BME280;56311;50.298;8.514;2023-07-16T06:28:00;97710.0;;;18.4;85.8
69198;BME280;56311;50.298;8.514;2023-07-16T06:30:00;97720.0;;;18.5;87.5
69198;BME280;56311;50.298;8.514;2023-07-16T06:32:00;97710.0;;;18.5;86.2
69198;BME280;56311;50.298;8.514;2023-07-16T06:34:00;97700.0;;;18.3;86.2
69198;BME280;56311;50.298;8.514;2023-07-16T06:36:00;97710.0;;;18.4;86.9
69198;BME280;56311;50.298;8.514;2023-07-16T06:38:00;97710.0;;;18.3;89.3
69198;BME280;56311;50.298;8.514;2023-07-16T06:40:00;97710.0;;;18.3;88.5
69198;BME280;56311;50.298;8.514;2023-07-16T06:42:01;97710.0;;;18.3;85.9
69198;BME280;56311;50.298;8.514;2023-07-16T06:44:00;97710.0;;;18.3;86.7
69198;BME280;56311;50.298;8.514;2023-07-16T06:46:00;97710.0;;;18.4;85.7
69198;BME280;56311;50.298;8.514;2023-07-16T06:48:00;97710.0;;;18.4;84.8
69198;BME280;56311;50.298;8.514;2023-07-16T06:50:00;97720.0;;;18.3;85.1
69198;BME280;56311;50.298;8.514;2023-07-16T06:52:00;97710.0;;;18.5;85.3
69198;BME280;56311;50.298;8.514;2023-07-16T06:54:00;97720.0;;;18.8;85.0
69198;BME280;56311;50.298;8.514;2023-07-16T06:56:00;97730.0;;;19.1;82.8
69198;BME280;56311;50.298;8.514;2023-07-16T06:58:00;97720.0;;;19.0;80.4
69198;BME280;56311;50.298;8.514;2023-07-16T07:00:00;97720.0;;;18.8;80.7
69198;BME280;56311;50.298;8.514;2023-07-16T07:02:00;97720.0;;;18.9;82.2
69198;BME280;56311;50.298;8.514;2023-07-16T07:04:00;97720.0;;;18.8;80.8
69198;BME280;56311;50.298;8.514;2023-07-16T07:06:01;97710.0;;;18.8;81.1
69198;BME280;56311;50.298;8.514;2023-07-16T07:08:00;97720.0;;;19.0;79.6
69198;BME280;56311;50.298;8.514;2023-07-16T07:10:00;97710.0;;;19.0;80.6
69198;BME280;56311;50.298;8.514;2023-07-16T07:12:00;97720.0;;;19.1;80.5
69198;BME280;56311;50.298;8.514;2023-07-16T07:14:00;97720.0;;;19.1;78.4
69198;BME280;56311;50.298;8.514;2023-07-16T07:16:00;97730.0;;;19.0;78.0
69198;BME280;56311;50.298;8.514;2023-07-16T07:18:00;97720.0;;;19.1;79.5
69198;BME280;56311;50.298;8.514;2023-07-16T07:20:00;97720.0;;;19.1;80.4
69198;BME280;56311;50.298;8.514;2023-07-16T07:22:00;97720.0;;;19.1;79.6
69198;BME280;56311;50.298;8.514;2023-07-16T07:24:01;97720.0;;;19.5;80.3
69198;BME280;56311;50.298;8.514;2023-07-16T07:26:00;97720.0;;;19.6;76.6
69198;BME280;56311;50.298;8.514;2023-07-16T07:28:00;97730.0;;;19.6;75.9
69198;BME280;56311;50.298;8.514;2023-07-16T07:30:01;97720.0;;;19.5;76.2
69198;BME280;56311;50.298;8.514;2023-07-16T07:32:00;97720.0;;;19.4;76.9
69198;BME280;56311;50.298;8.514;2023-07-16T07:34:00;97730.0;;;19.2;76.2
69198;BME280;56311;50.298;8.514;2023-07-16T07:36:00;97730.0;;;19.3;76.5
69198;BME280;56311;50.298;8.514;2023-07-16T07:38:00;97730.0;;;19.7;74.5
69198;BME280;56311;50.298;8.514;2023-07-16T07:40:00;97730.0;;;20.1;73.5
69198;BME280;56311;50.298;8.514;2023-07-16T07:42:01;97740.0;;;20.0;71.5
69198;BME280;56311;50.298;8.514;2023-07-16T07:44:00;97730.0;;;19.8;70.8
69198;BME280;56311;50.298;8.514;2023-07-16T07:46:00;97740.0;;;19.6;71.5
69198;BME280;56311;50.298;8.514;2023-07-16T07:48:00;97740.0;;;19.6;71.0
69198;BME280;56311;50.298;8.514;2023-07-16T07:50:00;97740.0;;;19.6;70.8
69198;BME280;56311;50.298;8.514;2023-07-16T07:52:00;97730.0;;;19.6;71.2
69198;BME280;56311;50.298;8.514;2023-07-16T07:54:00;97730.0;;;19.4;69.8
69198;BME280;56311;50.298;8.514;2023-07-16T07:56:00;97730.0;;;19.5;69.3
69198;BME280;56311;50.298;8.514;2023-07-16T07:58:00;97730.0;;;19.5;68.6
69198;BME280;56311;50.298;8.514;2023-07-16T08:00:00;97730.0;;;19.5;71.3
69198;BME280;56311;50.298;8.514;2023-07-16T08:02:00;97720.0;;;20.0;71.0
69198;BME280;56311;50.298;8.514;2023-07-16T08:04:01;97730.0;;;20.4;70.4
69198;BME280;56311;50.298;8.514;2023-07-16T08:06:01;97730.0;;;20.4;67.3
69198;BME280;56311;50.298;8.514;2023-07-16T08:08:00;97730.0;;;20.5;68.1
69198;BME280;56311;50.298;8.514;2023-07-16T08:10:00;97730.0;;;20.4;68.0
69198;BME280;56311;50.298;8.514;2023-07-16T08:12:00;97740.0;;;20.4;67.9
69198;BME280;56311;50.298;8.514;2023-07-16T08:14:00;97730.0;;;20.2;68.4
69198;BME280;56311;50.298;8.514;2023-07-16T08:16:00;97730.0;;;20.4;68.6
69198;BME280;56311;50.298;8.514;2023-07-16T08:18:01;97730.0;;;20.5;67.4
69198;BME280;56311;50.298;8.514;2023-07-16T08:20:00;97740.0;;;20.4;67.6
69198;BME280;56311;50.298;8.514;2023-07-16T08:22:00;97730.0;;;20.7;66.8
69198;BME280;56311;50.298;8.514;2023-07-16T08:24:00;97730.0;;;20.9;63.8
69198;BME280;56311;50.298;8.514;2023-07-16T08:26:00;97730.0;;;20.9;63.2
69198;BME280;56311;50.298;8.514;2023-07-16T08:28:02;97730.0;;;21.2;64.8
69198;BME280;56311;50.298;8.514;2023-07-16T08:30:00;97730.0;;;21.5;63.4
69198;BME280;56311;50.298;8.514;2023-07-16T08:32:00;97730.0;;;21.9;61.9
69198;BME280;56311;50.298;8.514;2023-07-16T08:34:00;97730.0;;;21.6;65.3
69198;BME280;56311;50.298;8.514;2023-07-16T08:36:00;97730.0;;;21.4;64.5
69198;BME280;56311;50.298;8.514;2023-07-16T08:38:00;97730.0;;;21.3;65.9
69198;BME280;56311;50.298;8.514;2023-07-16T08:40:00;97740.0;;;21.2;65.4
69198;BME280;56311;50.298;8.514;2023-07-16T08:42:01;97740.0;;;21.5;65.0
69198;BME280;56311;50.298;8.514;2023-07-16T08:44:01;97740.0;;;21.5;64.2
69198;BME280;56311;50.298;8.514;2023-07-16T08:46:00;97730.0;;;21.7;63.8
69198;BME280;56311;50.298;8.514;2023-07-16T08:48:00;97740.0;;;21.5;64.1
69198;BME280;56311;50.298;8.514;2023-07-16T08:50:00;97740.0;;;21.6;63.8
69198;BME280;56311;50.298;8.514;2023-07-16T08:52:01;97730.0;;;21.5;63.4
69198;BME280;56311;50.298;8.514;2023-07-16T08:54:00;97740.0;;;21.7;63.4
69198;BME280;56311;50.298;8.514;2023-07-16T08:56:00;97750.0;;;21.7;62.4
69198;BME280;56311;50.298;8.514;2023-07-16T08:58:00;97750.0;;;21.7;62.4
69198;BME280;56311;50.298;8.514;2023-07-16T09:00:01;97750.0;;;21.5;60.9
69198;BME280;56311;50.298;8.514;2023-07-16T09:02:01;97760.0;;;21.0;63.1
69198;BME280;56311;50.298;8.514;2023-07-16T09:04:00;97750.0;;;21.0;64.0
69198;BME280;56311;50.298;8.514;2023-07-16T09:06:01;97750.0;;;21.4;62.0
69198;BME280;56311;50.298;8.514;2023-07-16T09:08:00;97750.0;;;21.7;61.1
69198;BME280;56311;50.298;8.514;2023-07-16T09:10:00;97750.0;;;21.9;60.2
69198;BME280;56311;50.298;8.514;2023-07-16T09:12:01;97750.0;;;22.0;60.3
69198;BME280;56311;50.298;8.514;2023-07-16T09:14:01;97750.0;;;21.9;59.1
69198;BME280;56311;50.298;8.514;2023-07-16T09:16:01;97760.0;;;21.7;57.7
69198;BME280;56311;50.298;8.514;2023-07-16T09:18:01;97760.0;;;21.6;58.9
69198;BME280;56311;50.298;8.514;2023-07-16T09:20:02;97770.0;;;21.7;58.0
69198;BME280;56311;50.298;8.514;2023-07-16T09:22:00;97760.0;;;21.8;58.4
69198;BME280;56311;50.298;8.514;2023-07-16T09:24:00;97770.0;;;22.0;58.5
69198;BME280;56311;50.298;8.514;2023-07-16T09:26:01;97760.0;;;21.9;56.5
69198;BME280;56311;50.298;8.514;2023-07-16T09:28:02;97760.0;;;22.1;56.7
69198;BME280;56311;50.298;8.514;2023-07-16T09:30:03;97750.0;;;21.9;56.9
69198;BME280;56311;50.298;8.514;2023-07-16T09:32:01;97760.0;;;21.4;57.3
69198;BME280;56311;50.298;8.514;2023-07-16T09:34:00;97760.0;;;21.5;58.1
69198;BME280;56311;50.298;8.514;2023-07-16T09:36:00;97760.0;;;21.7;57.7
69198;BME280;56311;50.298;8.514;2023-07-16T09:38:01;97760.0;;;22.1;57.3
69198;BME280;56311;50.298;8.514;2023-07-16T09:40:00;97760.0;;;22.0;56.6
69198;BME280;56311;50.298;8.514;2023-07-16T09:42:01;97760.0;;;22.0;56.5
69198;BME280;56311;50.298;8.514;2023-07-16T09:44:01;97750.0;;;22.4;55.8
69198;BME280;56311;50.298;8.514;2023-07-16T09:46:00;97750.0;;;22.6;54.1
69198;BME280;56311;50.298;8.514;2023-07-16T09:48:00;97760.0;;;22.9;54.1
69198;BME280;56311;50.298;8.514;2023-07-16T09:50:00;97760.0;;;23.1;52.0
69198;BME280;56311;50.298;8.514;2023-07-16T09:52:02;97760.0;;;22.8;52.2
69198;BME280;56311;50.298;8.514;2023-07-16T09:54:01;97760.0;;;22.2;52.9
69198;BME280;56311;50.298;8.514;2023-07-16T09:56:02;97760.0;;;22.0;53.2
69198;BME280;56311;50.298;8.514;2023-07-16T09:58:04;97760.0;;;22.1;52.6
69198;BME280;56311;50.298;8.514;2023-07-16T10:00:03;97760.0;;;22.3;54.0
69198;BME280;56311;50.298;8.514;2023-07-16T10:02:00;97760.0;;;22.5;52.7
69198;BME280;56311;50.298;8.514;2023-07-16T10:04:11;97760.0;;;23.0;51.9
69198;BME280;56311;50.298;8.514;2023-07-16T10:06:08;97770.0;;;23.2;50.6
69198;BME280;56311;50.298;8.514;2023-07-16T10:08:00;97760.0;;;22.6;50.8
69198;BME280;56311;50.298;8.514;2023-07-16T10:10:00;97760.0;;;22.2;52.3
69198;BME280;56311;50.298;8.514;2023-07-16T10:12:12;97760.0;;;22.1;52.3
69198;BME280;56311;50.298;8.514;2023-07-16T10:14:00;97770.0;;;22.1;53.9
69198;BME280;56311;50.298;8.514;2023-07-16T10:16:00;97760.0;;;22.0;52.9
69198;BME280;56311;50.298;8.514;2023-07-16T10:18:00;97770.0;;;21.9;53.1
69198;BME280;56311;50.298;8.514;2023-07-16T10:20:01;97770.0;;;22.2;53.5
69198;BME280;56311;50.298;8.514;2023-07-16T10:22:00;97770.0;;;22.2;53.3
69198;BME280;56311;50.298;8.514;2023-07-16T10:24:00;97770.0;;;22.3;53.7
69198;BME280;56311;50.298;8.514;2023-07-16T10:26:01;97770.0;;;22.3;52.4
69198;BME280;56311;50.298;8.514;2023-07-16T10:28:00;97770.0;;;22.0;52.7
69198;BME280;56311;50.298;8.514;2023-07-16T10:30:01;97760.0;;;22.0;52.2
69198;BME280;56311;50.298;8.514;2023-07-16T10:32:01;97760.0;;;21.7;52.5
69198;BME280;56311;50.298;8.514;2023-07-16T10:34:01;97770.0;;;21.7;53.2
69198;BME280;56311;50.298;8.514;2023-07-16T10:36:00;97760.0;;;21.6;53.3
69198;BME280;56311;50.298;8.514;2023-07-16T10:38:00;97760.0;;;21.6;53.2
69198;BME280;56311;50.298;8.514;2023-07-16T10:40:01;97760.0;;;22.1;52.9
69198;BME280;56311;50.298;8.514;2023-07-16T10:42:01;97760.0;;;22.1;52.4
69198;BME280;56311;50.298;8.514;2023-07-16T10:44:00;97760.0;;;22.2;52.2
69198;BME280;56311;50.298;8.514;2023-07-16T10:46:02;97760.0;;;22.4;51.2
69198;BME280;56311;50.298;8.514;2023-07-16T10:48:00;97770.0;;;22.3;50.5
69198;BME280;56311;50.298;8.514;2023-07-16T10:50:03;97770.0;;;22.1;49.7
69198;BME280;56311;50.298;8.514;2023-07-16T10:52:01;97760.0;;;22.2;49.5
69198;BME280;56311;50.298;8.514;2023-07-16T10:54:00;97760.0;;;23.0;48.8
69198;BME280;56311;50.298;8.514;2023-07-16T10:56:00;97760.0;;;23.4;47.5